Time;durP1;ratioP1;P1;durP2;ratioP2;P2;SDS_P1;SDS_P2;PMS_P1;PMS_P2;Temp;Humidity;BMP_temperature;BMP_pressure;BME280_temperature;BME280_humidity;BME280_pressure;Samples;Min_cycle;Max_cycle;Signal;HPM_P1;HPM_P2
2020/12/13 00:01:08;;;;;;;8.93;7.30;;;;;;;17.02;62.56;100584.75;4854832;29;20385;-79
2020/12/13 00:03:33;;;;;;;9.10;7.15;;;;;;;17.03;62.79;100580.44;4846409;29;20030;-79
2020/12/13 00:05:59;;;;;;;8.77;7.20;;;;;;;17.04;62.87;100584.75;4833274;29;20038;-79
2020/12/13 00:08:26;;;;;;;9.73;7.30;;;;;;;17.03;62.81;100581.28;4829363;29;20034;-79
2020/12/13 00:10:51;;;;;;;9.45;6.80;;;;;;;17.03;62.84;100583.03;4837052;29;20128;-79
2020/12/13 00:13:19;;;;;;;8.93;6.75;;;;;;;17.01;62.73;100572.66;4847993;29;20173;-79
2020/12/13 00:15:44;;;;;;;9.27;7.47;;;;;;;17.00;62.94;100573.50;4847952;29;20033;-79
2020/12/13 00:18:09;;;;;;;8.98;7.10;;;;;;;17.01;63.04;100582.19;4839471;29;20038;-79
2020/12/13 00:20:35;;;;;;;8.30;7.32;;;;;;;17.00;62.89;100588.25;4833249;29;20504;-79
2020/12/13 00:23:00;;;;;;;10.68;7.28;;;;;;;17.01;62.74;100590.84;4827964;29;20481;-79
2020/12/13 00:25:26;;;;;;;8.63;6.70;;;;;;;17.02;62.64;100596.91;4850820;29;20036;-78
2020/12/13 00:27:51;;;;;;;8.70;6.72;;;;;;;17.01;62.95;100592.59;4839270;29;20042;-78
2020/12/13 00:30:16;;;;;;;9.75;6.93;;;;;;;17.01;62.89;100592.59;4826175;29;20038;-78
2020/12/13 00:32:42;;;;;;;8.98;6.75;;;;;;;17.02;62.97;100592.56;4832918;29;20041;-78
2020/12/13 00:35:07;;;;;;;8.73;6.57;;;;;;;17.00;62.94;100589.09;4832089;29;20486;-78
2020/12/13 00:37:32;;;;;;;7.78;6.25;;;;;;;17.00;62.89;100596.91;4825317;29;20033;-78
2020/12/13 00:39:58;;;;;;;9.02;6.57;;;;;;;17.00;62.61;100596.06;4843402;29;20473;-78
2020/12/13 00:42:23;;;;;;;9.23;6.20;;;;;;;17.00;62.58;100590.84;4859465;29;20059;-77
2020/12/13 00:44:49;;;;;;;10.88;6.80;;;;;;;17.01;62.60;100597.78;4845585;29;20034;-78
2020/12/13 00:47:14;;;;;;;7.75;6.13;;;;;;;17.01;62.88;100609.03;4818169;29;20065;-78
2020/12/13 00:49:40;;;;;;;7.50;6.25;;;;;;;17.00;62.89;100609.06;4832009;29;20073;-78
2020/12/13 00:52:06;;;;;;;7.07;6.25;;;;;;;17.01;62.49;100609.03;4846861;29;20034;-76
2020/12/13 00:54:31;;;;;;;8.35;6.53;;;;;;;17.01;62.56;100614.25;4844708;29;20421;-76
2020/12/13 00:56:57;;;;;;;9.68;6.63;;;;;;;17.01;62.55;100614.25;4847976;29;20032;-78
2020/12/13 00:59:22;;;;;;;7.70;6.28;;;;;;;16.99;62.76;100613.41;4842517;29;20515;-78
2020/12/13 01:01:48;;;;;;;7.47;6.22;;;;;;;17.01;62.74;100616.84;4816648;29;20032;-78
2020/12/13 01:04:13;;;;;;;7.15;6.30;;;;;;;17.01;62.39;100618.59;4829583;29;20037;-78
2020/12/13 01:06:39;;;;;;;7.57;6.00;;;;;;;17.03;62.41;100632.44;4843059;29;20037;-78
2020/12/13 01:09:05;;;;;;;6.82;5.70;;;;;;;17.02;62.64;100635.91;4859401;29;20037;-78
2020/12/13 01:11:32;;;;;;;7.07;5.82;;;;;;;17.03;62.54;100637.63;4840090;29;20026;-77
2020/12/13 01:13:58;;;;;;;7.47;6.20;;;;;;;17.02;62.44;100636.75;4822532;29;20044;-78
2020/12/13 01:16:25;;;;;;;7.78;6.05;;;;;;;17.03;62.54;100632.44;4828953;29;20034;-78
2020/12/13 01:18:51;;;;;;;6.78;5.68;;;;;;;17.03;62.32;100635.88;4824276;29;20075;-78
2020/12/13 01:21:19;;;;;;;7.78;5.63;;;;;;;17.03;62.15;100635.88;4824341;29;20062;-78
2020/12/13 01:23:44;;;;;;;6.40;5.70;;;;;;;17.03;62.16;100646.28;4834193;29;20098;-78
2020/12/13 01:26:12;;;;;;;6.93;5.53;;;;;;;17.04;62.52;100639.34;4846047;29;20117;-78
2020/12/13 01:28:38;;;;;;;7.40;5.80;;;;;;;17.04;62.17;100650.59;4847952;29;20381;-78
2020/12/13 01:31:03;;;;;;;6.43;5.55;;;;;;;17.04;62.19;100653.19;4846630;29;20053;-78
2020/12/13 01:33:28;;;;;;;6.65;5.57;;;;;;;17.05;62.03;100651.47;4847868;29;20071;-78
2020/12/13 01:35:54;;;;;;;6.60;5.60;;;;;;;17.06;62.13;100658.38;4812226;29;20058;-78
2020/12/13 01:38:19;;;;;;;6.78;5.65;;;;;;;17.05;62.03;100665.34;4827789;29;20041;-78
2020/12/13 01:40:47;;;;;;;6.88;5.45;;;;;;;17.06;61.94;100664.44;4835636;29;20030;-78
2020/12/13 01:43:13;;;;;;;7.25;5.32;;;;;;;17.04;61.91;100661.00;4853184;29;20034;-78
2020/12/13 01:45:38;;;;;;;6.57;5.30;;;;;;;17.05;61.79;100667.09;4827904;29;20081;-78
2020/12/13 01:48:04;;;;;;;8.90;5.53;;;;;;;17.06;61.86;100663.59;4813674;29;20046;-78
2020/12/13 01:53:13;;;;;;;7.05;6.05;;;;;;;17.06;61.89;100666.19;4844647;29;20422;-78
2020/12/13 01:55:41;;;;;;;6.22;5.38;;;;;;;17.07;61.86;100660.09;4832750;29;20046;-78
2020/12/13 01:58:11;;;;;;;6.22;5.10;;;;;;;17.08;61.79;100671.38;4843680;29;20049;-78
2020/12/13 02:00:37;;;;;;;6.10;4.82;;;;;;;17.07;61.81;100667.91;4844711;29;20397;-78
2020/12/13 02:03:04;;;;;;;6.22;5.20;;;;;;;17.06;61.93;100672.25;4825421;29;20130;-78
2020/12/13 02:05:30;;;;;;;5.63;5.03;;;;;;;17.07;61.81;100675.69;4831116;29;20034;-79
2020/12/13 02:07:56;;;;;;;5.97;5.22;;;;;;;17.08;61.48;100680.03;4848543;29;20094;-78
2020/12/13 02:10:22;;;;;;;7.07;5.38;;;;;;;17.08;61.58;100676.59;4853485;29;20030;-78
2020/12/13 02:12:47;;;;;;;6.97;5.28;;;;;;;17.08;61.67;100667.03;4843803;29;20508;-80
2020/12/13 02:15:13;;;;;;;6.70;5.68;;;;;;;17.08;61.75;100669.63;4830437;29;20046;-80
2020/12/13 02:17:40;;;;;;;7.07;5.28;;;;;;;17.09;61.70;100681.75;4845725;29;20032;-81
2020/12/13 02:20:12;;;;;;;5.95;4.93;;;;;;;17.08;61.63;100685.25;4853770;29;20036;-80
2020/12/13 02:22:41;;;;;;;6.60;5.20;;;;;;;17.08;61.48;100682.63;4830725;29;20358;-78
2020/12/13 02:25:11;;;;;;;6.95;5.40;;;;;;;17.08;61.40;100685.25;4836586;29;20093;-79
2020/12/13 02:27:37;;;;;;;5.65;5.03;;;;;;;17.09;61.52;100686.94;4822167;29;20501;-79
2020/12/13 02:30:04;;;;;;;5.65;4.85;;;;;;;17.09;61.40;100692.16;4812075;29;20070;-79
2020/12/13 02:32:30;;;;;;;5.80;4.95;;;;;;;17.08;61.47;100687.84;4853515;29;20104;-79
2020/12/13 02:34:56;;;;;;;6.03;4.85;;;;;;;17.08;61.42;100690.44;4830317;29;20101;-79
2020/12/13 02:37:21;;;;;;;5.22;4.65;;;;;;;17.08;61.44;100694.78;4845158;29;20060;-79
2020/12/13 02:39:47;;;;;;;5.97;4.88;;;;;;;17.09;61.23;100691.28;4815006;29;20097;-79
2020/12/13 02:42:12;;;;;;;5.60;4.63;;;;;;;17.08;61.14;100705.19;4861358;29;20048;-79
2020/12/13 02:44:37;;;;;;;5.20;4.60;;;;;;;17.08;61.16;100708.63;4827394;29;20030;-79
2020/12/13 02:47:03;;;;;;;5.25;4.43;;;;;;;17.08;61.19;100707.78;4844057;29;20045;-79
2020/12/13 02:49:28;;;;;;;5.75;4.85;;;;;;;17.08;61.31;100719.03;4845344;29;20034;-79
2020/12/13 02:51:53;;;;;;;5.47;4.53;;;;;;;17.08;61.32;100719.03;4861935;29;20036;-79
2020/12/13 02:54:19;;;;;;;4.90;4.40;;;;;;;17.08;61.46;100718.19;4839148;29;20392;-79
2020/12/13 02:56:44;;;;;;;5.22;4.72;;;;;;;17.08;61.03;100719.03;4844869;29;20085;-79
2020/12/13 02:59:09;;;;;;;5.32;4.82;;;;;;;17.08;61.09;100721.63;4830029;29;20037;-79
2020/12/13 03:01:35;;;;;;;4.35;3.90;;;;;;;17.08;61.23;100725.97;4829777;29;20124;-79
2020/12/13 03:04:00;;;;;;;4.78;4.03;;;;;;;17.08;61.15;100720.78;4845142;29;20033;-79
2020/12/13 03:06:26;;;;;;;4.60;4.07;;;;;;;17.07;61.08;100722.50;4829566;29;20124;-79
2020/12/13 03:08:51;;;;;;;5.20;4.30;;;;;;;17.09;60.91;100725.09;4844940;29;20044;-79
2020/12/13 03:11:22;;;;;;;4.78;4.20;;;;;;;17.08;60.82;100732.03;4828890;29;20037;-78
2020/12/13 03:13:51;;;;;;;5.05;4.18;;;;;;;17.08;60.80;100729.44;4830451;29;20025;-78
2020/12/13 03:16:17;;;;;;;5.15;4.20;;;;;;;17.08;60.95;100742.44;4837207;29;20034;-79
2020/12/13 03:18:43;;;;;;;4.47;3.90;;;;;;;17.08;61.11;100745.03;4826784;29;20037;-79
2020/12/13 03:21:08;;;;;;;4.63;3.95;;;;;;;17.09;60.76;100745.88;4858167;29;20025;-79
2020/12/13 03:23:34;;;;;;;4.57;3.92;;;;;;;17.08;60.90;100738.97;4858253;29;20034;-79
2020/12/13 03:25:59;;;;;;;4.57;4.07;;;;;;;17.10;60.77;100742.44;4855838;29;20175;-79
2020/12/13 03:28:25;;;;;;;4.60;3.80;;;;;;;17.10;60.78;100747.63;4846068;29;20508;-79
2020/12/13 03:30:50;;;;;;;4.35;3.95;;;;;;;17.07;60.81;100748.50;4835741;29;20034;-79
2020/12/13 03:33:16;;;;;;;4.95;3.75;;;;;;;17.08;60.95;100747.63;4832680;29;20053;-79
2020/12/13 03:35:41;;;;;;;4.50;3.75;;;;;;;17.08;60.69;100754.56;4843889;29;20082;-79
2020/12/13 03:38:06;;;;;;;4.70;3.63;;;;;;;17.08;60.63;100749.38;4845833;29;20089;-78
2020/12/13 03:40:32;;;;;;;4.25;3.67;;;;;;;17.08;60.55;100754.56;4858733;29;20033;-78
2020/12/13 03:42:57;;;;;;;4.13;3.67;;;;;;;17.06;60.38;100752.84;4844199;29;20378;-78
2020/12/13 03:45:22;;;;;;;4.75;3.72;;;;;;;17.06;60.56;100755.44;4829370;29;20041;-78
2020/12/13 03:47:48;;;;;;;4.00;3.60;;;;;;;17.08;60.47;100764.97;4843550;29;20048;-78
2020/12/13 03:50:13;;;;;;;4.78;3.80;;;;;;;17.06;60.41;100758.03;4819890;29;20125;-78
2020/12/13 03:52:38;;;;;;;4.07;3.42;;;;;;;17.08;60.48;100781.44;4825896;29;20084;-78
2020/12/13 03:55:04;;;;;;;4.13;3.72;;;;;;;17.07;60.64;100774.50;4842881;29;20090;-78
2020/12/13 03:57:29;;;;;;;4.32;3.20;;;;;;;17.07;60.53;100771.88;4827995;29;20038;-78
2020/12/13 03:59:54;;;;;;;4.28;3.30;;;;;;;17.08;60.52;100776.22;4843383;29;20041;-78
2020/12/13 04:02:20;;;;;;;3.95;3.30;;;;;;;17.08;60.48;100772.78;4810989;29;20048;-78
2020/12/13 04:04:45;;;;;;;4.32;3.58;;;;;;;17.08;60.41;100778.84;4812338;29;20057;-78
2020/12/13 04:07:10;;;;;;;4.15;3.50;;;;;;;17.09;60.41;100774.50;4825473;29;20397;-78
2020/12/13 04:09:36;;;;;;;3.25;2.92;;;;;;;17.09;60.32;100787.50;4826490;29;20040;-78
2020/12/13 04:12:01;;;;;;;5.15;3.72;;;;;;;17.12;60.05;100782.28;4803655;29;20041;-79
2020/12/13 04:14:26;;;;;;;4.20;3.47;;;;;;;17.13;60.14;100784.00;4833993;29;20106;-78
2020/12/13 04:16:52;;;;;;;3.67;3.10;;;;;;;17.15;60.06;100787.44;4834601;29;20210;-79
2020/12/13 04:19:17;;;;;;;3.58;2.95;;;;;;;17.17;59.91;100786.56;4841271;29;20045;-79
2020/12/13 04:21:43;;;;;;;3.22;2.92;;;;;;;17.20;59.99;100783.06;4828239;29;20048;-79
2020/12/13 04:24:08;;;;;;;3.47;3.05;;;;;;;17.20;59.76;100777.84;4860946;29;20507;-79
2020/12/13 04:26:33;;;;;;;3.55;2.92;;;;;;;17.21;59.84;100777.84;4860905;29;20472;-77
2020/12/13 04:28:59;;;;;;;3.15;2.85;;;;;;;17.22;59.74;100784.78;4849502;29;20032;-77
2020/12/13 04:31:24;;;;;;;3.00;2.70;;;;;;;17.22;59.93;100787.38;4854614;29;20037;-77
2020/12/13 04:33:50;;;;;;;3.42;3.00;;;;;;;17.26;59.60;100790.81;4826015;29;20094;-77
2020/12/13 04:36:15;;;;;;;3.22;2.92;;;;;;;17.24;59.73;100782.16;4839359;29;20045;-77
2020/12/13 04:38:40;;;;;;;2.90;2.53;;;;;;;17.27;59.59;100792.53;4836119;29;20026;-77
2020/12/13 04:41:07;;;;;;;3.17;2.83;;;;;;;17.26;59.74;100790.81;4843896;29;20129;-77
2020/12/13 04:43:33;;;;;;;3.20;2.90;;;;;;;17.28;59.69;100789.91;4818064;29;20120;-77
2020/12/13 04:45:58;;;;;;;3.50;2.88;;;;;;;17.27;59.73;100785.59;4813731;29;20129;-77
2020/12/13 04:48:24;;;;;;;3.28;2.70;;;;;;;17.29;59.64;100796.00;4821378;29;20068;-77
2020/12/13 04:50:50;;;;;;;2.72;2.42;;;;;;;17.30;59.78;100799.47;4844207;29;20082;-77
2020/12/13 04:53:17;;;;;;;3.13;2.60;;;;;;;17.29;59.50;100793.41;4846182;29;20030;-76
2020/12/13 04:55:54;;;;;;;3.10;2.67;;;;;;;17.31;59.27;100801.16;4828641;29;20086;-77
2020/12/13 04:58:21;;;;;;;2.53;2.20;;;;;;;17.31;59.65;100807.25;4844033;29;20537;-77
2020/12/13 05:00:57;;;;;;;2.55;2.35;;;;;;;17.32;59.69;100806.38;4829071;29;20053;-77
2020/12/13 05:03:23;;;;;;;2.88;2.58;;;;;;;17.32;59.59;100803.75;4845930;29;20064;-77
2020/12/13 05:05:49;;;;;;;2.90;2.60;;;;;;;17.33;59.75;100804.63;4828390;29;20515;-77
2020/12/13 05:08:15;;;;;;;3.03;2.50;;;;;;;17.34;59.58;100809.81;4855793;29;20358;-77
2020/12/13 05:10:40;;;;;;;3.08;2.42;;;;;;;17.35;59.61;100805.47;4829654;29;20044;-77
2020/12/13 05:13:10;;;;;;;3.03;2.38;;;;;;;17.34;59.68;100803.75;4845757;29;20042;-77
2020/12/13 05:15:37;;;;;;;2.88;2.40;;;;;;;17.35;59.65;100808.94;4833213;29;20034;-77
2020/12/13 05:18:04;;;;;;;2.60;2.10;;;;;;;17.37;59.49;100809.78;4856735;29;20034;-77
2020/12/13 05:20:31;;;;;;;2.75;2.30;;;;;;;17.35;59.75;100816.72;4834670;29;20030;-77
2020/12/13 05:22:57;;;;;;;2.88;2.25;;;;;;;17.36;59.78;100822.81;4843233;29;20041;-77
2020/12/13 05:25:34;;;;;;;2.90;2.38;;;;;;;17.38;59.45;100821.91;4844253;29;20026;-77
2020/12/13 05:28:03;;;;;;;2.58;2.38;;;;;;;17.38;59.54;100816.72;4839260;29;20037;-77
2020/12/13 05:30:34;;;;;;;2.78;2.35;;;;;;;17.39;59.66;100815.81;4846179;29;20022;-78
2020/12/13 05:33:29;;;;;;;5.90;2.58;;;;;;;17.39;59.75;100813.22;4851688;29;20469;-78
2020/12/13 05:36:02;;;;;;;2.45;2.20;;;;;;;17.39;59.55;100807.16;4832072;29;20424;-77
2020/12/13 05:38:47;;;;;;;3.60;2.38;;;;;;;17.39;59.61;100800.22;4842953;29;20029;-76
2020/12/13 05:41:15;;;;;;;2.40;2.00;;;;;;;17.39;59.40;100802.81;4840808;29;20094;-77
2020/12/13 05:44:04;;;;;;;2.50;2.20;;;;;;;17.40;59.58;100814.13;4857616;29;20108;-77
2020/12/13 05:51:43;;;;;;;3.45;2.25;;;;;;;17.36;59.73;100812.41;4832303;29;20034;-77
2020/12/13 05:57:04;;;;;;;3.58;2.20;;;;;;;17.33;59.63;100805.47;4844820;29;20041;-77
2020/12/13 05:59:31;;;;;;;2.42;2.15;;;;;;;17.33;59.86;100812.41;4827218;29;20037;-77
2020/12/13 06:01:59;;;;;;;2.38;2.15;;;;;;;17.31;59.90;100817.66;4859112;29;20036;-77
2020/12/13 06:04:29;;;;;;;2.28;1.98;;;;;;;17.31;59.97;100817.66;4827776;29;20030;-77
2020/12/13 06:06:57;;;;;;;2.55;2.15;;;;;;;17.30;59.96;100825.47;4821597;29;20472;-77
2020/12/13 06:09:34;;;;;;;2.50;2.08;;;;;;;17.28;60.20;100823.72;4845698;29;20213;-77
2020/12/13 06:12:05;;;;;;;2.85;2.00;;;;;;;17.28;60.05;100826.31;4857090;29;20053;-77
2020/12/13 06:14:31;;;;;;;2.20;1.95;;;;;;;17.28;60.16;100825.47;4829371;29;20045;-78
2020/12/13 06:16:58;;;;;;;2.30;2.10;;;;;;;17.27;60.13;100831.56;4845031;29;20532;-78
2020/12/13 06:19:25;;;;;;;2.38;1.85;;;;;;;17.27;60.09;100828.97;4840255;29;20056;-78
2020/12/13 06:21:54;;;;;;;2.33;2.05;;;;;;;17.26;60.23;100822.00;4867678;29;20044;-78
2020/12/13 06:24:20;;;;;;;2.35;2.10;;;;;;;17.25;60.02;100828.97;4828259;29;20064;-78
2020/12/13 06:26:45;;;;;;;2.65;2.10;;;;;;;17.25;60.17;100825.50;4830130;29;20057;-79
2020/12/13 06:29:11;;;;;;;2.13;1.92;;;;;;;17.25;60.17;100833.31;4812154;29;20038;-79
2020/12/13 06:31:37;;;;;;;2.35;2.05;;;;;;;17.26;60.24;100835.03;4849692;29;20034;-79
2020/12/13 06:34:04;;;;;;;2.65;1.98;;;;;;;17.24;60.25;100828.97;4845635;29;20034;-79
2020/12/13 06:36:33;;;;;;;2.60;2.10;;;;;;;17.25;60.38;100835.91;4815869;29;20132;-79
2020/12/13 06:38:59;;;;;;;2.17;1.95;;;;;;;17.22;60.15;100834.19;4852592;29;20112;-77
2020/12/13 06:41:27;;;;;;;2.65;1.92;;;;;;;17.25;60.06;100831.56;4836211;29;20465;-77
2020/12/13 06:43:55;;;;;;;2.58;2.05;;;;;;;17.28;59.78;100835.88;4827131;29;20042;-77
2020/12/13 06:46:26;;;;;;;2.75;2.25;;;;;;;17.29;59.74;100842.81;4849447;29;20089;-77
2020/12/13 06:48:52;;;;;;;2.55;2.20;;;;;;;17.31;60.00;100841.06;4856608;29;20457;-77
2020/12/13 06:51:34;;;;;;;2.78;2.10;;;;;;;17.36;59.81;100847.09;4849910;29;20040;-77
2020/12/13 06:53:59;;;;;;;5.80;2.40;;;;;;;17.40;59.81;100840.97;4827899;29;20038;-78
2020/12/13 06:57:03;;;;;;;4.35;2.35;;;;;;;17.38;59.71;100840.13;4852780;29;20022;-81
2020/12/13 06:59:28;;;;;;;10.52;2.10;;;;;;;17.36;59.84;100841.88;4842449;29;20029;-77
2020/12/13 07:01:53;;;;;;;8.02;2.00;;;;;;;17.37;59.70;100840.13;4859743;29;20037;-78
2020/12/13 07:04:39;;;;;;;7.43;2.42;;;;;;;17.38;59.68;100840.13;4830573;29;20041;-80
2020/12/13 07:07:16;;;;;;;7.68;2.05;;;;;;;17.36;60.00;100849.69;4861275;29;20045;-80
2020/12/13 07:09:42;;;;;;;8.13;2.08;;;;;;;17.33;59.95;100852.28;4849220;29;20121;-80
2020/12/13 07:12:09;;;;;;;9.52;2.80;;;;;;;17.31;60.11;100861.00;4856998;29;20067;-80
2020/12/13 07:14:37;;;;;;;8.73;2.08;;;;;;;17.30;60.19;100860.13;4838884;29;20029;-80
2020/12/13 07:17:12;;;;;;;11.00;2.25;;;;;;;17.28;60.19;100860.13;4843951;29;20026;-80
2020/12/13 07:19:38;;;;;;;7.50;2.35;;;;;;;17.29;60.26;100868.81;4845416;29;20104;-80
2020/12/13 07:22:05;;;;;;;8.60;3.17;;;;;;;17.29;60.20;100868.81;4829943;29;20049;-79
2020/12/13 07:24:31;;;;;;;6.32;2.15;;;;;;;17.30;60.25;100869.69;4844946;29;20392;-79
2020/12/13 07:26:57;;;;;;;9.32;2.22;;;;;;;17.28;60.39;100867.94;4861237;29;20037;-80
2020/12/13 07:29:23;;;;;;;6.47;2.20;;;;;;;17.28;60.23;100874.88;4861584;29;20230;-80
2020/12/13 07:31:48;;;;;;;6.63;1.95;;;;;;;17.27;60.50;100879.22;4844904;29;20062;-79
2020/12/13 07:34:14;;;;;;;11.13;2.47;;;;;;;17.27;60.20;100886.19;4859944;29;20090;-79
2020/12/13 07:36:40;;;;;;;6.40;2.20;;;;;;;17.27;60.33;100883.56;4829588;29;20110;-80
2020/12/13 07:39:08;;;;;;;5.25;2.15;;;;;;;17.27;60.21;100889.63;4830064;29;20037;-80
2020/12/13 07:41:33;;;;;;;4.00;2.05;;;;;;;17.27;60.40;100892.22;4843597;29;20067;-80
2020/12/13 07:44:04;;;;;;;4.55;2.03;;;;;;;17.28;60.36;100895.69;4811361;29;20030;-80
2020/12/13 07:46:30;;;;;;;4.30;2.08;;;;;;;17.27;60.04;100893.97;4844549;29;20026;-80
2020/12/13 07:49:06;;;;;;;4.65;2.00;;;;;;;17.26;60.42;100898.28;4841253;29;20073;-79
2020/12/13 07:51:33;;;;;;;4.10;1.70;;;;;;;17.27;60.34;100905.25;4832254;29;20026;-79
2020/12/13 07:54:12;;;;;;;2.90;1.88;;;;;;;17.29;60.27;100907.84;4842596;29;20504;-79
2020/12/13 07:56:38;;;;;;;4.38;1.83;;;;;;;17.30;60.10;100899.16;4845396;29;20030;-78
2020/12/13 07:59:14;;;;;;;2.60;1.70;;;;;;;17.35;59.87;100904.31;4840492;29;20052;-77
2020/12/13 08:01:41;;;;;;;2.83;1.88;;;;;;;17.39;59.71;100909.47;4838869;29;20037;-78
2020/12/13 08:04:06;;;;;;;7.00;1.90;;;;;;;17.42;59.87;100916.38;4831107;29;20120;-78
2020/12/13 08:06:32;;;;;;;4.85;1.90;;;;;;;17.40;59.88;100925.97;4840500;29;20162;-80
2020/12/13 08:08:58;;;;;;;4.60;1.90;;;;;;;17.37;59.88;100926.81;4860134;29;20062;-80
2020/12/13 08:11:24;;;;;;;3.85;1.90;;;;;;;17.35;59.68;100933.78;4840954;29;20040;-79
2020/12/13 08:13:54;;;;;;;7.18;2.00;;;;;;;17.35;59.77;100940.72;4826440;29;20131;-78
2020/12/13 08:16:24;;;;;;;4.18;2.00;;;;;;;17.32;59.97;100939.00;4847157;29;20024;-78
2020/12/13 08:18:52;;;;;;;4.18;1.80;;;;;;;17.33;59.95;100932.06;4817345;29;20033;-78
2020/12/13 08:21:37;;;;;;;8.70;1.75;;;;;;;17.32;59.85;100933.81;4847895;29;20032;-78
2020/12/13 08:24:03;;;;;;;3.88;1.90;;;;;;;17.33;59.83;100934.66;4844709;29;20036;-78
2020/12/13 08:26:31;;;;;;;2.75;1.70;;;;;;;17.33;59.83;100942.47;4814028;29;20045;-78
2020/12/13 08:29:00;;;;;;;2.72;1.77;;;;;;;17.34;60.09;100946.81;4845766;29;20392;-78
2020/12/13 08:31:28;;;;;;;2.63;1.60;;;;;;;17.36;59.80;100948.53;4854065;29;20140;-78
2020/12/13 08:34:05;;;;;;;3.95;2.00;;;;;;;17.38;59.67;100951.13;4828972;29;20082;-78
2020/12/13 08:36:31;;;;;;;2.97;1.50;;;;;;;17.38;59.63;100951.13;4854357;29;20045;-78
2020/12/13 08:39:06;;;;;;;2.72;1.65;;;;;;;17.36;59.59;100961.53;4836302;29;20033;-78
2020/12/13 08:41:32;;;;;;;7.60;1.80;;;;;;;17.35;59.67;100961.53;4858178;29;20037;-78
2020/12/13 08:43:58;;;;;;;5.18;1.63;;;;;;;17.34;59.68;100963.28;4845422;29;20030;-78
2020/12/13 08:46:43;;;;;;;2.88;1.60;;;;;;;17.35;59.82;100961.53;4814114;29;20034;-78
2020/12/13 08:49:09;;;;;;;2.60;1.60;;;;;;;17.36;59.53;100963.28;4862878;29;20046;-79
2020/12/13 08:51:34;;;;;;;3.38;1.70;;;;;;;17.37;59.76;100965.00;4848292;29;20033;-79
2020/12/13 08:54:02;;;;;;;3.05;1.30;;;;;;;17.37;59.57;100960.66;4848005;29;20032;-79
2020/12/13 08:56:33;;;;;;;3.75;1.42;;;;;;;17.37;59.39;100967.59;4851545;29;20022;-80
2020/12/13 08:58:59;;;;;;;1.95;1.23;;;;;;;17.37;59.46;100971.06;4839237;29;20038;-79
2020/12/13 09:01:31;;;;;;;2.60;1.65;;;;;;;17.44;59.52;100969.28;4842636;29;20030;-78
2020/12/13 09:03:57;;;;;;;3.10;1.50;;;;;;;17.45;61.03;100974.47;4847666;29;20033;-80
2020/12/13 09:06:29;;;;;;;3.28;1.40;;;;;;;17.45;63.25;100977.06;4838974;29;20030;-77
2020/12/13 09:09:09;;;;;;;7.57;1.80;;;;;;;17.43;64.39;100978.81;4848744;29;20056;-78
2020/12/13 09:11:34;;;;;;;2.20;1.50;;;;;;;17.31;63.68;100976.31;4840817;29;20757;-79
2020/12/13 09:14:00;;;;;;;3.05;1.58;;;;;;;17.25;66.12;100976.34;4866279;29;20026;-80
2020/12/13 09:16:33;;;;;;;2.47;1.60;;;;;;;17.24;65.92;100982.41;4848918;29;20039;-80
2020/12/13 09:19:12;;;;;;;2.35;1.42;;;;;;;17.21;66.34;100983.28;4817298;29;20030;-79
2020/12/13 09:21:44;;;;;;;2.22;1.42;;;;;;;17.20;65.90;100986.78;4841390;29;20125;-78
2020/12/13 09:24:10;;;;;;;2.60;1.73;;;;;;;17.17;66.55;100993.72;4834757;29;20041;-78
2020/12/13 09:26:36;;;;;;;4.13;1.48;;;;;;;17.13;67.35;100997.22;4830461;29;20152;-78
2020/12/13 09:29:01;;;;;;;3.75;1.50;;;;;;;17.09;66.36;101004.16;4822467;29;20529;-78
2020/12/13 09:31:27;;;;;;;3.45;1.67;;;;;;;17.08;66.15;101006.78;4862384;29;20031;-78
2020/12/13 09:33:52;;;;;;;2.45;1.50;;;;;;;17.06;65.79;101014.56;4861418;29;20054;-78
2020/12/13 09:36:17;;;;;;;2.72;1.17;;;;;;;17.09;67.46;101009.34;4852213;29;20493;-78
2020/12/13 09:38:43;;;;;;;2.67;1.45;;;;;;;17.06;67.84;101007.63;4833875;29;20441;-79
2020/12/13 09:41:08;;;;;;;6.20;1.27;;;;;;;17.05;66.54;101007.66;4845166;29;20041;-79
2020/12/13 09:43:34;;;;;;;5.97;1.65;;;;;;;17.03;66.37;101012.00;4856764;29;20041;-79
2020/12/13 09:45:59;;;;;;;3.35;1.30;;;;;;;17.06;67.21;101009.38;4829970;29;20048;-79
2020/12/13 09:48:24;;;;;;;3.35;1.50;;;;;;;17.06;67.00;101014.56;4819930;29;20090;-79
2020/12/13 09:50:50;;;;;;;2.35;1.45;;;;;;;17.08;66.42;101006.78;4849688;29;20042;-78
2020/12/13 09:53:15;;;;;;;2.22;1.48;;;;;;;17.08;66.68;101011.97;4853065;29;20037;-79
2020/12/13 09:55:41;;;;;;;3.22;1.40;;;;;;;17.08;66.75;101009.38;4835300;29;20069;-79
2020/12/13 09:58:06;;;;;;;3.08;1.40;;;;;;;17.08;66.03;101011.97;4832108;29;20056;-79
2020/12/13 10:00:32;;;;;;;2.75;1.30;;;;;;;17.09;66.25;101008.50;4833535;29;20116;-79
2020/12/13 10:02:57;;;;;;;2.13;1.25;;;;;;;17.09;67.87;101008.50;4809814;29;20435;-79
2020/12/13 10:05:35;;;;;;;2.38;1.30;;;;;;;17.08;65.79;101014.59;4833510;29;20046;-79
2020/12/13 10:10:44;;;;;;;1.40;1.20;;;;;;;17.10;66.70;101005.03;4834333;29;20077;-79
2020/12/13 10:13:09;;;;;;;2.10;1.30;;;;;;;17.12;66.25;100998.09;4821145;29;20050;-78
2020/12/13 10:15:35;;;;;;;2.67;1.30;;;;;;;17.12;66.01;101005.91;4830098;29;20101;-78
2020/12/13 10:18:00;;;;;;;1.90;0.98;;;;;;;17.14;66.25;101002.41;4828619;29;20030;-79
2020/12/13 10:20:25;;;;;;;2.03;1.10;;;;;;;17.13;66.10;101005.88;4808882;29;20041;-79
2020/12/13 10:22:51;;;;;;;3.08;1.40;;;;;;;17.11;65.86;100997.22;4844611;29;20137;-79
2020/12/13 10:25:16;;;;;;;1.52;1.23;;;;;;;17.14;67.78;100993.75;4831344;29;20057;-79
2020/12/13 10:27:42;;;;;;;1.88;1.20;;;;;;;17.15;65.35;100995.47;4829510;29;20117;-79
2020/12/13 10:30:07;;;;;;;2.17;1.20;;;;;;;17.18;66.26;100995.44;4826676;29;20061;-79
2020/12/13 10:32:32;;;;;;;2.45;1.20;;;;;;;17.16;65.46;100991.97;4815698;29;20041;-80
2020/12/13 10:34:58;;;;;;;2.40;1.10;;;;;;;17.17;65.19;100988.53;4828127;29;20041;-80
2020/12/13 10:37:23;;;;;;;2.30;1.30;;;;;;;17.19;65.48;100994.59;4827424;29;20062;-80
2020/12/13 10:39:49;;;;;;;2.33;1.15;;;;;;;17.17;65.38;100981.59;4812939;29;20084;-80
2020/12/13 10:42:14;;;;;;;2.03;1.27;;;;;;;17.21;65.63;100992.84;4807355;29;20120;-79
2020/12/13 10:44:39;;;;;;;3.15;1.30;;;;;;;17.23;65.16;100988.50;4845145;29;20037;-79
2020/12/13 10:47:05;;;;;;;2.13;1.20;;;;;;;17.21;65.10;100988.50;4845178;29;20401;-78
2020/12/13 10:49:31;;;;;;;1.52;1.00;;;;;;;17.20;65.19;100991.09;4815161;29;20100;-78
2020/12/13 10:51:56;;;;;;;1.67;1.10;;;;;;;17.24;65.41;100990.22;4832009;29;20829;-78
2020/12/13 10:54:21;;;;;;;1.80;1.13;;;;;;;17.25;65.90;100992.81;4845215;29;20490;-78
2020/12/13 10:56:47;;;;;;;1.48;1.00;;;;;;;17.25;65.00;100995.41;4845039;29;20389;-78
2020/12/13 10:59:12;;;;;;;2.72;1.10;;;;;;;17.25;64.71;100999.75;4816205;29;20711;-78
2020/12/13 11:01:38;;;;;;;2.65;1.20;;;;;;;17.24;64.79;100988.47;4825586;29;20489;-78
2020/12/13 11:04:03;;;;;;;1.67;1.00;;;;;;;17.26;64.91;100993.66;4806017;29;20523;-78
2020/12/13 11:06:30;;;;;;;3.13;1.20;;;;;;;17.26;64.39;100996.28;4838673;29;20090;-78
2020/12/13 11:08:55;;;;;;;1.70;1.02;;;;;;;17.26;65.23;100994.53;4829616;29;20038;-78
2020/12/13 11:11:21;;;;;;;1.63;1.00;;;;;;;17.28;65.84;100987.59;4809233;29;20049;-80
2020/12/13 11:13:47;;;;;;;1.70;1.10;;;;;;;17.27;64.77;100990.22;4840220;29;20508;-78
2020/12/13 11:16:12;;;;;;;1.67;1.00;;;;;;;17.27;64.82;100991.06;4860784;29;20389;-78
2020/12/13 11:18:39;;;;;;;2.55;1.00;;;;;;;17.30;65.33;101002.31;4828795;29;20173;-77
2020/12/13 11:21:04;;;;;;;1.52;0.80;;;;;;;17.28;64.34;100997.97;4829270;29;20076;-78
2020/12/13 11:23:29;;;;;;;3.00;1.15;;;;;;;17.30;65.57;100984.13;4821325;29;20893;-77
2020/12/13 11:25:55;;;;;;;2.00;1.17;;;;;;;17.28;65.38;100984.97;4796007;29;20042;-78
2020/12/13 11:28:20;;;;;;;2.22;1.23;;;;;;;17.27;64.56;100985.88;4849167;29;20034;-77
2020/12/13 11:30:46;;;;;;;1.63;0.80;;;;;;;17.28;65.54;100991.94;4826966;29;20049;-78
2020/12/13 11:33:11;;;;;;;1.83;1.10;;;;;;;17.27;65.48;100992.81;4833980;29;20481;-77
2020/12/13 11:35:37;;;;;;;2.80;1.00;;;;;;;17.30;65.10;100989.31;4810529;29;20514;-79
2020/12/13 11:38:06;;;;;;;2.10;1.02;;;;;;;17.28;64.51;100992.78;4838711;29;20037;-78